Time;durP1;ratioP1;P1;durP2;ratioP2;P2;SDS_P1;SDS_P2;PMS_P1;PMS_P2;Temp;Humidity;BMP_temperature;BMP_pressure;BME280_temperature;BME280_humidity;BME280_pressure;Samples;Min_cycle;Max_cycle;Signal;HPM_P1;HPM_P2
2021/06/15 00:00:10;;;;;;;12.88;5.07;;;22.20;78.50;;;;;;5127708;27;20208;-69
2021/06/15 00:02:39;;;;;;;15.85;5.32;;;22.20;78.90;;;;;;5118111;27;20933;-70
2021/06/15 00:05:07;;;;;;;11.32;5.03;;;22.20;79.10;;;;;;5124550;27;20204;-73
2021/06/15 00:07:34;;;;;;;14.05;5.68;;;22.20;79.50;;;;;;5126118;27;20204;-72
2021/06/15 00:10:01;;;;;;;13.20;5.28;;;22.20;79.60;;;;;;5128610;27;20208;-73
2021/06/15 00:12:28;;;;;;;11.00;4.75;;;22.20;79.70;;;;;;5125252;27;20200;-71
2021/06/15 00:14:55;;;;;;;11.27;5.07;;;22.20;79.80;;;;;;5127800;27;20657;-74
2021/06/15 00:17:21;;;;;;;14.35;5.10;;;22.20;79.70;;;;;;5125736;27;20212;-72
2021/06/15 00:19:49;;;;;;;14.77;5.30;;;22.20;79.90;;;;;;5126043;27;20212;-72
2021/06/15 00:22:16;;;;;;;13.98;4.78;;;22.20;80.20;;;;;;5122766;27;20574;-72
2021/06/15 00:24:43;;;;;;;11.82;4.55;;;22.10;80.30;;;;;;5125246;27;20205;-73
2021/06/15 00:27:10;;;;;;;17.45;5.15;;;22.10;80.50;;;;;;5125124;27;20211;-71
2021/06/15 00:29:37;;;;;;;12.90;4.82;;;22.10;80.50;;;;;;5126405;27;21093;-72
2021/06/15 00:32:04;;;;;;;10.40;4.43;;;22.00;80.50;;;;;;5123519;27;21958;-72
2021/06/15 00:34:31;;;;;;;9.38;4.28;;;21.90;80.60;;;;;;5126123;27;20295;-71
2021/06/15 00:36:59;;;;;;;13.05;4.60;;;21.90;81.70;;;;;;5125131;27;20220;-71
2021/06/15 00:39:27;;;;;;;11.88;4.30;;;21.90;81.10;;;;;;5128660;27;20188;-71
2021/06/15 00:41:54;;;;;;;15.95;4.53;;;21.80;81.10;;;;;;5123904;27;20678;-69
2021/06/15 00:44:21;;;;;;;13.85;4.32;;;21.80;81.30;;;;;;5123429;27;20620;-70
2021/06/15 00:46:48;;;;;;;11.00;4.25;;;21.70;81.30;;;;;;5122729;27;20224;-72
2021/06/15 00:49:24;;;;;;;12.52;4.05;;;21.70;81.40;;;;;;5127179;27;20228;-71
2021/06/15 00:51:51;;;;;;;12.25;4.35;;;21.70;81.50;;;;;;5123019;27;20203;-72
2021/06/15 00:54:19;;;;;;;8.95;4.00;;;21.60;81.40;;;;;;5126554;27;20201;-71
2021/06/15 00:56:47;;;;;;;8.13;3.75;;;21.60;81.30;;;;;;5123239;27;20343;-72
2021/06/15 00:59:14;;;;;;;9.65;3.55;;;21.60;81.30;;;;;;5123702;27;20200;-71
2021/06/15 01:01:42;;;;;;;9.65;3.25;;;21.60;81.30;;;;;;5126693;27;20201;-72
2021/06/15 01:04:10;;;;;;;7.13;2.80;;;21.60;81.00;;;;;;5118978;27;20240;-73
2021/06/15 01:06:43;;;;;;;7.45;2.40;;;21.70;80.60;;;;;;5121832;27;20223;-74
2021/06/15 01:09:17;;;;;;;8.60;2.80;;;21.60;80.00;;;;;;5120606;27;20618;-73
2021/06/15 01:11:54;;;;;;;11.18;3.10;;;21.60;79.70;;;;;;5117021;27;20205;-72
2021/06/15 01:14:39;;;;;;;9.63;3.25;;;21.60;79.70;;;;;;5122688;27;20199;-72
2021/06/15 01:17:12;;;;;;;13.73;3.45;;;21.60;79.70;;;;;;5120102;27;20628;-72
2021/06/15 01:19:47;;;;;;;10.27;3.33;;;21.60;79.70;;;;;;5124845;27;20201;-72
2021/06/15 01:22:39;;;;;;;6.95;3.13;;;21.60;79.60;;;;;;5124233;27;20699;-72
2021/06/15 01:25:14;;;;;;;9.82;2.70;;;21.50;79.50;;;;;;5115773;27;20250;-72
2021/06/15 01:27:51;;;;;;;7.32;2.42;;;21.50;79.60;;;;;;5120173;27;20722;-72
2021/06/15 01:30:21;;;;;;;5.90;2.35;;;21.40;79.20;;;;;;5122541;27;20626;-72
2021/06/15 01:32:53;;;;;;;9.50;2.65;;;21.50;79.00;;;;;;5123115;27;20325;-70
2021/06/15 01:35:24;;;;;;;9.80;2.28;;;21.40;78.60;;;;;;5122172;27;20204;-72
2021/06/15 01:37:58;;;;;;;9.40;2.55;;;21.50;78.50;;;;;;5123347;27;20196;-72
2021/06/15 01:40:31;;;;;;;8.25;2.50;;;21.50;78.40;;;;;;5126311;27;20253;-70
2021/06/15 01:43:13;;;;;;;8.65;2.42;;;21.50;78.30;;;;;;5125848;27;21128;-72
2021/06/15 01:45:43;;;;;;;8.80;2.80;;;21.50;78.30;;;;;;5124106;27;20656;-70
2021/06/15 01:48:19;;;;;;;7.60;2.63;;;21.50;78.30;;;;;;5141195;27;20209;-71
2021/06/15 01:50:49;;;;;;;8.10;2.60;;;21.50;78.20;;;;;;5123322;27;20381;-73
2021/06/15 01:53:21;;;;;;;6.93;2.60;;;21.50;78.20;;;;;;5123512;27;20212;-72
2021/06/15 01:55:53;;;;;;;10.30;2.50;;;21.40;78.30;;;;;;5123109;27;20292;-72
2021/06/15 01:58:24;;;;;;;10.35;2.28;;;21.40;78.30;;;;;;5125334;27;20579;-72
2021/06/15 02:00:53;;;;;;;4.75;2.20;;;21.40;78.30;;;;;;5124074;27;20200;-74
2021/06/15 02:03:22;;;;;;;6.07;2.20;;;21.40;78.30;;;;;;5125511;27;20237;-72
2021/06/15 02:05:53;;;;;;;10.98;2.70;;;21.30;78.20;;;;;;5123952;27;20211;-73
2021/06/15 02:08:26;;;;;;;9.88;1.95;;;21.30;78.10;;;;;;5123106;28;20220;-72
2021/06/15 02:10:55;;;;;;;5.78;1.38;;;21.30;77.80;;;;;;5122662;27;20252;-73
2021/06/15 02:13:40;;;;;;;5.85;1.58;;;21.30;77.70;;;;;;5124099;28;20295;-72
2021/06/15 02:16:48;;;;;;;4.93;1.52;;;21.30;77.50;;;;;;5058803;28;20228;-73
2021/06/15 02:19:34;;;;;;;4.63;1.50;;;21.20;77.20;;;;;;5045512;28;20423;-71
2021/06/15 02:22:08;;;;;;;10.18;2.00;;;21.80;75.20;;;;;;5090552;27;20471;-73
2021/06/15 02:24:39;;;;;;;7.05;1.90;;;22.10;74.20;;;;;;5126318;28;20288;-73
2021/06/15 02:27:10;;;;;;;5.70;1.30;;;21.80;75.10;;;;;;5123287;27;20288;-73
2021/06/15 02:29:40;;;;;;;7.28;1.40;;;21.70;75.70;;;;;;5126099;27;20652;-72
2021/06/15 02:32:11;;;;;;;5.97;1.60;;;21.40;76.10;;;;;;5127361;27;20253;-72
2021/06/15 02:34:44;;;;;;;7.00;1.38;;;21.30;76.70;;;;;;5124826;27;20694;-72
2021/06/15 02:37:14;;;;;;;7.72;1.60;;;21.20;77.20;;;;;;5128834;27;20224;-73
2021/06/15 02:39:42;;;;;;;7.50;1.48;;;21.00;77.40;;;;;;5127551;27;20211;-72
2021/06/15 02:42:13;;;;;;;4.07;1.20;;;21.00;77.80;;;;;;5127394;27;20226;-74
2021/06/15 02:44:44;;;;;;;5.30;1.20;;;21.00;78.00;;;;;;5126162;27;20193;-73
2021/06/15 02:47:16;;;;;;;4.55;1.38;;;20.90;78.10;;;;;;5125987;27;20224;-72
2021/06/15 02:49:48;;;;;;;9.13;1.20;;;20.90;78.20;;;;;;5126504;27;20201;-73
2021/06/15 02:52:19;;;;;;;5.03;1.58;;;20.90;78.20;;;;;;5126571;27;20197;-73
2021/06/15 02:54:53;;;;;;;11.02;1.70;;;20.90;78.10;;;;;;5124684;27;20211;-73
2021/06/15 02:57:21;;;;;;;6.55;1.20;;;20.90;78.10;;;;;;5122769;27;20699;-73
2021/06/15 02:59:50;;;;;;;8.95;1.95;;;20.80;78.20;;;;;;5160740;27;20236;-73
2021/06/15 03:02:17;;;;;;;7.88;1.60;;;20.80;78.30;;;;;;5127610;27;20200;-72
2021/06/15 03:04:47;;;;;;;7.55;1.35;;;20.80;78.30;;;;;;5125927;27;20571;-72
2021/06/15 03:07:14;;;;;;;5.78;1.52;;;20.80;78.20;;;;;;5126136;27;20196;-72
2021/06/15 03:09:42;;;;;;;7.15;1.50;;;20.80;78.10;;;;;;5127915;27;20664;-74
2021/06/15 03:12:16;;;;;;;5.90;2.00;;;20.80;78.20;;;;;;5127426;27;20224;-70
2021/06/15 03:14:54;;;;;;;7.72;1.67;;;20.70;78.20;;;;;;5126285;27;20234;-70
2021/06/15 03:17:24;;;;;;;7.97;1.42;;;20.70;78.40;;;;;;5126494;27;20220;-71
2021/06/15 03:19:59;;;;;;;7.10;1.70;;;20.60;78.40;;;;;;5126085;27;20339;-73
2021/06/15 03:22:32;;;;;;;6.43;1.30;;;20.60;78.40;;;;;;5128299;27;20209;-74
2021/06/15 03:25:03;;;;;;;9.18;1.50;;;20.60;78.30;;;;;;5125102;27;20208;-70
2021/06/15 03:27:40;;;;;;;7.10;1.80;;;20.60;78.30;;;;;;5125925;27;20192;-71
2021/06/15 03:30:12;;;;;;;5.63;1.45;;;20.50;78.10;;;;;;5125051;27;20414;-71
2021/06/15 03:32:47;;;;;;;5.25;1.27;;;21.10;76.70;;;;;;5126176;27;20196;-71
2021/06/15 03:35:16;;;;;;;9.25;2.03;;;20.90;77.10;;;;;;5128031;27;20208;-71
2021/06/15 03:37:51;;;;;;;11.25;1.52;;;20.80;77.40;;;;;;5125073;27;20224;-71
2021/06/15 03:40:22;;;;;;;4.72;1.20;;;20.70;77.40;;;;;;5127240;27;20544;-72
2021/06/15 03:42:51;;;;;;;7.93;1.30;;;20.70;77.50;;;;;;5125317;27;20204;-71
2021/06/15 03:45:25;;;;;;;3.47;1.15;;;20.60;77.60;;;;;;5127824;27;20312;-71
2021/06/15 03:47:55;;;;;;;5.30;1.50;;;20.50;77.60;;;;;;5126040;27;20292;-71
2021/06/15 03:50:24;;;;;;;7.50;1.40;;;20.50;77.70;;;;;;5128470;27;20692;-71
2021/06/15 03:52:55;;;;;;;7.88;1.83;;;20.50;77.80;;;;;;5122962;27;20211;-72
2021/06/15 03:55:23;;;;;;;6.53;1.38;;;20.50;77.80;;;;;;5124872;27;20275;-73
2021/06/15 03:57:52;;;;;;;3.60;1.10;;;20.50;78.70;;;;;;5125659;27;20227;-71
2021/06/15 04:00:24;;;;;;;4.93;1.20;;;20.50;77.80;;;;;;5123739;27;20201;-72
2021/06/15 04:02:55;;;;;;;6.07;1.30;;;20.50;77.80;;;;;;5127354;27;20219;-74
2021/06/15 04:05:26;;;;;;;5.05;1.33;;;20.40;77.60;;;;;;5126536;27;20658;-71
2021/06/15 04:07:54;;;;;;;7.53;1.33;;;20.50;77.50;;;;;;5123801;27;20193;-73
2021/06/15 04:10:22;;;;;;;4.45;1.10;;;20.40;77.40;;;;;;5142150;27;20204;-73
2021/06/15 04:12:49;;;;;;;10.60;1.35;;;20.40;77.40;;;;;;5126883;27;20201;-71
2021/06/15 04:15:19;;;;;;;7.57;1.25;;;20.40;77.30;;;;;;5125525;27;20203;-72
2021/06/15 04:17:51;;;;;;;6.40;1.17;;;20.40;77.20;;;;;;5127117;27;20707;-72
2021/06/15 04:20:22;;;;;;;8.40;1.30;;;20.40;77.20;;;;;;5126738;27;20212;-71
2021/06/15 04:22:50;;;;;;;7.85;1.30;;;20.40;77.20;;;;;;5125687;27;20687;-71
2021/06/15 04:25:21;;;;;;;5.95;1.70;;;20.40;77.20;;;;;;5122274;27;20273;-71
2021/06/15 04:27:49;;;;;;;8.82;2.65;;;20.40;77.40;;;;;;5122865;27;20694;-71
2021/06/15 04:30:19;;;;;;;6.53;1.40;;;20.40;77.00;;;;;;5124646;27;20629;-71
2021/06/15 04:32:52;;;;;;;10.00;1.95;;;20.40;76.90;;;;;;5126017;27;20204;-71
2021/06/15 04:35:25;;;;;;;6.93;1.42;;;20.40;76.90;;;;;;5125361;27;20275;-71
2021/06/15 04:37:54;;;;;;;10.40;1.70;;;20.30;77.10;;;;;;5125533;27;20247;-71
2021/06/15 04:40:27;;;;;;;11.18;1.38;;;20.40;77.20;;;;;;5127219;27;20215;-71
2021/06/15 04:43:07;;;;;;;6.72;1.30;;;20.30;77.10;;;;;;5124525;27;20201;-72
2021/06/15 04:45:40;;;;;;;8.02;1.50;;;20.30;77.10;;;;;;5124576;27;20211;-72
2021/06/15 04:48:24;;;;;;;6.32;1.27;;;20.20;77.10;;;;;;5122668;27;20192;-71
2021/06/15 04:50:52;;;;;;;9.70;1.75;;;20.20;77.30;;;;;;5120194;27;20204;-73
2021/06/15 04:53:20;;;;;;;7.60;1.80;;;20.20;77.40;;;;;;5122513;27;20224;-72
2021/06/15 04:55:49;;;;;;;5.57;1.60;;;20.20;77.40;;;;;;5120285;27;20664;-72
2021/06/15 04:58:18;;;;;;;12.02;4.85;;;20.20;77.40;;;;;;5123684;27;20227;-73
2021/06/15 05:00:46;;;;;;;11.93;2.38;;;20.30;77.30;;;;;;5124044;27;20197;-75
2021/06/15 05:03:14;;;;;;;5.65;1.63;;;20.30;77.80;;;;;;5121834;27;20208;-74
2021/06/15 05:05:41;;;;;;;6.88;1.40;;;20.40;76.70;;;;;;5124690;27;20664;-71
2021/06/15 05:08:14;;;;;;;7.55;1.70;;;20.40;76.40;;;;;;5127335;27;20208;-73
2021/06/15 05:10:43;;;;;;;9.63;1.63;;;20.40;76.20;;;;;;5122854;27;20680;-73
2021/06/15 05:13:12;;;;;;;10.35;1.20;;;20.40;75.90;;;;;;5126736;27;20209;-72
2021/06/15 05:15:42;;;;;;;7.95;2.05;;;20.50;75.80;;;;;;5126111;27;20211;-71
2021/06/15 05:18:10;;;;;;;9.82;1.83;;;20.50;75.60;;;;;;5123047;27;20224;-73
2021/06/15 05:20:39;;;;;;;6.30;1.20;;;20.50;75.40;;;;;;5126019;27;20660;-73
2021/06/15 05:23:09;;;;;;;9.77;1.25;;;20.40;75.30;;;;;;5124904;27;20688;-73
2021/06/15 05:25:36;;;;;;;9.68;1.30;;;20.40;75.30;;;;;;5124977;27;20884;-72
2021/06/15 05:28:03;;;;;;;9.05;1.60;;;20.40;75.30;;;;;;5124395;27;20184;-72
2021/06/15 05:30:30;;;;;;;12.10;1.95;;;20.30;75.30;;;;;;5126437;27;20598;-73
2021/06/15 05:32:57;;;;;;;8.82;1.50;;;20.40;75.30;;;;;;5125181;27;20563;-71
2021/06/15 05:35:24;;;;;;;7.85;1.60;;;20.40;75.20;;;;;;5123973;27;20207;-70
2021/06/15 05:37:53;;;;;;;6.93;1.70;;;20.40;75.10;;;;;;5124191;27;20216;-71
2021/06/15 05:40:20;;;;;;;8.90;1.77;;;20.50;75.00;;;;;;5125503;27;20561;-73
2021/06/15 05:42:47;;;;;;;10.57;1.83;;;20.40;74.90;;;;;;5122854;27;20196;-72
2021/06/15 05:45:16;;;;;;;10.55;1.90;;;20.40;74.90;;;;;;5123309;27;20235;-71
2021/06/15 05:47:44;;;;;;;8.27;1.50;;;20.30;74.90;;;;;;5122201;27;20254;-72
2021/06/15 05:50:13;;;;;;;7.05;1.42;;;20.30;75.10;;;;;;5123578;27;20209;-74
2021/06/15 05:52:40;;;;;;;10.02;1.55;;;20.30;75.20;;;;;;5124361;27;20203;-73
2021/06/15 05:55:11;;;;;;;8.85;1.50;;;20.20;75.10;;;;;;5130177;27;20204;-73
2021/06/15 05:57:37;;;;;;;7.72;1.58;;;20.30;75.20;;;;;;5126474;27;20289;-71
2021/06/15 06:00:06;;;;;;;10.55;1.92;;;20.30;75.20;;;;;;5126783;27;20563;-70
2021/06/15 06:02:40;;;;;;;8.17;1.83;;;20.40;75.20;;;;;;5126639;27;20200;-75
2021/06/15 06:08:06;;;;;;;6.20;1.60;;;20.50;75.10;;;;;;5131715;27;20202;-75
2021/06/15 06:10:36;;;;;;;7.68;1.52;;;20.50;74.90;;;;;;5131827;27;20207;-75
2021/06/15 06:13:06;;;;;;;9.68;1.63;;;20.50;74.60;;;;;;5131741;27;20205;-73
2021/06/15 06:15:33;;;;;;;8.98;1.60;;;20.60;74.40;;;;;;5133671;27;20228;-73
2021/06/15 06:18:06;;;;;;;10.95;1.65;;;20.60;74.20;;;;;;5133245;27;20216;-72
2021/06/15 06:20:34;;;;;;;6.72;1.42;;;20.70;74.00;;;;;;5133029;27;20208;-73
2021/06/15 06:23:01;;;;;;;6.32;1.50;;;20.70;73.80;;;;;;5131935;27;20239;-72
2021/06/15 06:25:28;;;;;;;7.68;1.50;;;20.60;73.50;;;;;;5133051;27;20205;-72
2021/06/15 06:27:56;;;;;;;8.68;1.77;;;20.70;73.40;;;;;;5131469;27;20192;-72
2021/06/15 06:30:24;;;;;;;6.72;1.38;;;20.70;73.10;;;;;;5129711;27;20578;-74
2021/06/15 06:32:51;;;;;;;11.05;1.77;;;20.70;72.90;;;;;;5125658;27;20204;-71
2021/06/15 06:35:18;;;;;;;9.25;1.58;;;20.70;72.80;;;;;;5131579;27;20199;-72
2021/06/15 06:37:45;;;;;;;8.43;1.40;;;20.80;72.80;;;;;;5131369;27;20216;-71
2021/06/15 06:40:13;;;;;;;6.65;1.35;;;20.80;72.70;;;;;;5133524;27;20727;-72
2021/06/15 06:42:39;;;;;;;9.93;1.50;;;20.80;72.50;;;;;;5131415;27;20655;-71
2021/06/15 06:45:10;;;;;;;9.73;1.65;;;20.80;72.10;;;;;;5132809;27;20210;-74
2021/06/15 06:47:37;;;;;;;8.80;1.60;;;20.80;72.00;;;;;;5132925;27;20213;-74
2021/06/15 06:50:05;;;;;;;5.40;1.25;;;20.80;71.90;;;;;;5132164;27;20570;-75
2021/06/15 06:52:32;;;;;;;7.85;2.20;;;20.80;71.80;;;;;;5133133;27;20283;-75
2021/06/15 06:54:59;;;;;;;8.57;2.10;;;20.70;71.60;;;;;;5133088;27;20232;-78
2021/06/15 06:57:26;;;;;;;11.57;2.05;;;20.80;71.50;;;;;;5131092;27;20688;-70
2021/06/15 06:59:52;;;;;;;14.15;1.88;;;20.80;71.40;;;;;;5129800;27;20200;-71
2021/06/15 07:02:21;;;;;;;11.15;2.05;;;20.70;71.30;;;;;;5131129;27;20207;-71
2021/06/15 07:04:47;;;;;;;9.60;1.58;;;20.80;71.30;;;;;;5128628;27;20259;-73
2021/06/15 07:07:14;;;;;;;13.32;2.03;;;20.70;71.30;;;;;;5125125;27;20203;-72
2021/06/15 07:09:41;;;;;;;6.40;1.73;;;20.80;71.40;;;;;;5127149;27;20211;-73
2021/06/15 07:12:08;;;;;;;9.95;1.80;;;20.80;71.40;;;;;;5124876;27;20207;-72
2021/06/15 07:14:36;;;;;;;10.00;2.13;;;20.80;71.50;;;;;;5125681;27;20201;-73
2021/06/15 07:17:02;;;;;;;10.05;1.77;;;20.70;71.40;;;;;;5126141;27;20216;-72
2021/06/15 07:19:31;;;;;;;11.18;2.28;;;20.70;71.40;;;;;;5125382;27;20220;-73
2021/06/15 07:21:58;;;;;;;12.02;2.78;;;20.80;71.50;;;;;;5127337;27;20217;-72
2021/06/15 07:24:24;;;;;;;9.65;2.30;;;20.80;71.50;;;;;;5129578;27;21401;-73
2021/06/15 07:26:51;;;;;;;8.68;1.90;;;20.80;71.40;;;;;;5127739;27;20210;-72
2021/06/15 07:29:18;;;;;;;10.05;2.35;;;20.90;71.30;;;;;;5128644;27;20203;-72
2021/06/15 07:31:45;;;;;;;11.32;2.40;;;20.90;71.10;;;;;;5123694;27;20209;-73
2021/06/15 07:34:12;;;;;;;7.57;1.83;;;20.90;71.00;;;;;;5124292;27;22131;-72
2021/06/15 07:36:40;;;;;;;11.48;2.10;;;21.00;71.10;;;;;;5127650;27;20205;-71
2021/06/15 07:39:07;;;;;;;10.68;2.72;;;21.00;71.10;;;;;;5126279;27;20701;-72
2021/06/15 07:41:34;;;;;;;9.05;2.25;;;21.00;71.10;;;;;;5128375;27;20201;-73
2021/06/15 07:44:01;;;;;;;8.32;1.80;;;21.10;71.00;;;;;;5126223;27;20214;-73
2021/06/15 07:46:28;;;;;;;9.63;1.67;;;21.10;71.00;;;;;;5126896;27;20209;-72
2021/06/15 07:48:55;;;;;;;11.88;2.05;;;21.10;70.90;;;;;;5126199;27;20200;-71
2021/06/15 07:51:23;;;;;;;9.35;2.25;;;21.20;70.90;;;;;;5124352;27;20582;-72
2021/06/15 07:53:51;;;;;;;8.10;2.08;;;21.20;70.70;;;;;;5127584;27;20550;-71
2021/06/15 07:56:18;;;;;;;5.32;1.27;;;21.30;70.50;;;;;;5126943;27;20232;-72
2021/06/15 07:58:45;;;;;;;9.55;2.03;;;21.20;70.20;;;;;;5128679;27;20635;-71
2021/06/15 08:01:12;;;;;;;12.45;1.80;;;21.30;69.90;;;;;;5124391;27;20201;-73
2021/06/15 08:03:39;;;;;;;9.40;1.73;;;21.30;69.70;;;;;;5122671;27;20215;-71
2021/06/15 08:06:06;;;;;;;7.05;1.90;;;21.40;69.40;;;;;;5122238;27;20197;-72
2021/06/15 08:08:33;;;;;;;6.40;1.63;;;21.40;69.40;;;;;;5121632;27;20197;-74
2021/06/15 08:11:02;;;;;;;11.25;1.70;;;21.40;69.30;;;;;;5125455;27;20856;-74
2021/06/15 08:13:30;;;;;;;8.10;1.90;;;21.40;69.10;;;;;;5120185;27;20197;-73
2021/06/15 08:15:57;;;;;;;6.28;1.65;;;21.40;69.00;;;;;;5118878;27;20662;-72
2021/06/15 08:18:24;;;;;;;12.32;2.35;;;21.40;68.90;;;;;;5118396;27;20770;-72
2021/06/15 08:20:53;;;;;;;12.18;2.10;;;21.40;68.80;;;;;;5121358;27;20205;-74
2021/06/15 08:23:20;;;;;;;6.55;1.90;;;21.40;68.70;;;;;;5117900;27;20747;-73
2021/06/15 08:25:47;;;;;;;9.50;1.70;;;21.40;68.70;;;;;;5118371;27;20680;-72
2021/06/15 08:28:15;;;;;;;8.82;2.00;;;21.40;68.70;;;;;;5117712;27;20291;-73
2021/06/15 08:30:43;;;;;;;7.15;1.90;;;21.40;68.90;;;;;;5117328;27;20197;-73
2021/06/15 08:33:10;;;;;;;5.70;1.83;;;21.40;69.10;;;;;;5119076;27;20203;-73
2021/06/15 08:35:37;;;;;;;10.57;2.10;;;21.40;68.90;;;;;;5122173;27;20207;-74
2021/06/15 08:38:05;;;;;;;9.35;2.45;;;21.40;69.00;;;;;;5127772;27;20212;-75
2021/06/15 08:40:31;;;;;;;13.82;2.35;;;21.50;68.80;;;;;;5124556;27;20196;-73
2021/06/15 08:42:58;;;;;;;7.93;1.90;;;21.50;68.30;;;;;;5123532;27;20204;-73
2021/06/15 08:45:27;;;;;;;6.05;1.90;;;21.50;68.10;;;;;;5122354;27;20219;-72
2021/06/15 08:47:55;;;;;;;6.80;2.10;;;21.50;68.00;;;;;;5121832;27;20668;-73
2021/06/15 08:50:24;;;;;;;9.27;2.15;;;21.60;67.80;;;;;;5120042;27;20211;-73
2021/06/15 08:52:52;;;;;;;8.73;2.25;;;21.60;67.50;;;;;;5118735;27;20668;-74
2021/06/15 08:55:20;;;;;;;7.57;1.90;;;21.70;67.20;;;;;;5120445;27;20204;-73
2021/06/15 08:57:55;;;;;;;11.23;2.53;;;21.70;66.80;;;;;;5124110;27;20204;-72
2021/06/15 09:00:22;;;;;;;8.13;1.90;;;21.70;66.30;;;;;;5124148;27;20218;-72
2021/06/15 09:02:50;;;;;;;13.15;2.35;;;21.80;65.80;;;;;;5124254;27;20196;-70
2021/06/15 09:05:19;;;;;;;10.30;2.60;;;21.80;65.00;;;;;;5126535;27;20664;-73
2021/06/15 09:08:03;;;;;;;4.95;1.58;;;21.80;64.30;;;;;;5124875;27;20311;-74
2021/06/15 09:10:32;;;;;;;9.20;2.28;;;21.90;63.80;;;;;;5124450;27;20245;-71
2021/06/15 09:12:59;;;;;;;8.15;2.30;;;21.80;63.80;;;;;;5125254;27;20209;-75
2021/06/15 09:15:26;;;;;;;8.73;2.10;;;21.90;63.90;;;;;;5126605;27;20213;-71
2021/06/15 09:17:54;;;;;;;6.00;2.05;;;21.90;64.00;;;;;;5124993;27;20212;-70
2021/06/15 09:20:24;;;;;;;12.30;1.98;;;22.00;64.10;;;;;;5126315;27;20540;-72
2021/06/15 09:23:00;;;;;;;13.18;2.78;;;22.00;63.90;;;;;;5125190;27;20671;-70
2021/06/15 09:25:27;;;;;;;9.00;2.33;;;22.00;63.80;;;;;;5127070;27;20200;-72
2021/06/15 09:27:55;;;;;;;7.82;2.38;;;22.10;63.90;;;;;;5124529;27;20667;-71
2021/06/15 09:30:25;;;;;;;7.25;1.73;;;22.10;63.80;;;;;;5123027;27;20297;-72
2021/06/15 09:32:54;;;;;;;10.20;2.80;;;22.10;63.80;;;;;;5123745;27;20283;-73
2021/06/15 09:35:22;;;;;;;8.98;2.20;;;22.20;63.80;;;;;;5125581;27;20220;-71
2021/06/15 09:37:54;;;;;;;11.32;2.35;;;22.20;63.60;;;;;;5126494;27;20261;-74
2021/06/15 09:40:24;;;;;;;8.02;1.90;;;22.30;63.30;;;;;;5126436;27;20217;-70
2021/06/15 09:42:52;;;;;;;;;;;22.30;63.20;;;;;;5124360;27;20047;-72
2021/06/15 09:45:19;;;;;;;;;;;22.30;63.60;;;;;;5124917;27;19935;-72
2021/06/15 09:47:46;;;;;;;;;;;22.30;63.60;;;;;;5122222;27;19923;-70
2021/06/15 09:50:14;;;;;;;;;;;22.40;63.60;;;;;;5126149;27;19931;-71
2021/06/15 09:52:41;;;;;;;;;;;22.40;63.50;;;;;;5125953;28;19927;-71
2021/06/15 09:55:09;;;;;;;;;;;22.50;63.70;;;;;;5126369;28;19923;-72
2021/06/15 09:57:37;;;;;;;;;;;22.60;63.70;;;;;;5125208;28;19920;-71
2021/06/15 10:00:11;;;;;;;;;;;22.60;63.50;;;;;;5122364;27;19928;-71
2021/06/15 10:02:52;;;;;;;;;;;22.70;63.20;;;;;;5125450;28;20291;-70
2021/06/15 10:05:35;;;;;;;;;;;22.80;63.20;;;;;;5122034;28;19942;-72
2021/06/15 10:08:03;;;;;;;10.60;2.65;;;22.80;63.10;;;;;;5152392;27;22237;-72
2021/06/15 10:10:32;;;;;;;8.65;2.13;;;23.40;59.50;;;;;;5120013;27;20423;-71
2021/06/15 10:13:00;;;;;;;11.82;2.40;;;23.80;59.20;;;;;;5123704;27;20768;-73
2021/06/15 10:15:28;;;;;;;8.98;2.72;;;24.10;58.20;;;;;;5120192;27;20475;-72
2021/06/15 10:17:56;;;;;;;10.63;2.83;;;24.40;57.50;;;;;;5122257;27;20402;-71
2021/06/15 10:20:25;;;;;;;9.23;2.42;;;24.50;57.30;;;;;;5123844;27;20426;-71
2021/06/15 10:22:55;;;;;;;11.02;2.30;;;24.80;57.10;;;;;;5123429;28;20774;-71
2021/06/15 10:25:25;;;;;;;11.27;2.42;;;24.90;56.30;;;;;;5124427;28;20422;-70
2021/06/15 10:27:55;;;;;;;9.87;2.40;;;25.00;54.00;;;;;;5122426;28;20419;-71
2021/06/15 10:30:30;;;;;;;8.38;2.20;;;25.20;53.20;;;;;;5123272;27;20740;-72
2021/06/15 10:32:58;;;;;;;8.57;2.50;;;25.40;53.20;;;;;;5122695;28;20421;-72
2021/06/15 10:35:35;;;;;;;9.50;3.00;;;25.50;52.80;;;;;;5125078;28;20421;-72
2021/06/15 10:38:04;;;;;;;10.02;2.70;;;25.50;52.70;;;;;;5124039;27;20433;-72
2021/06/15 10:40:40;;;;;;;8.18;2.10;;;25.60;52.70;;;;;;5123750;28;20422;-73
2021/06/15 10:43:22;;;;;;;8.63;2.35;;;25.70;51.70;;;;;;5120600;28;20423;-71
2021/06/15 10:45:52;;;;;;;7.10;2.20;;;25.70;51.10;;;;;;5121697;27;20512;-70
2021/06/15 10:48:31;;;;;;;9.23;2.40;;;25.80;51.50;;;;;;5119437;27;20426;-69
2021/06/15 10:51:01;;;;;;;9.32;2.13;;;25.90;51.20;;;;;;5124939;27;21488;-74
2021/06/15 10:53:37;;;;;;;8.45;2.30;;;25.90;51.20;;;;;;5126528;27;20467;-73
2021/06/15 10:56:06;;;;;;;7.55;1.95;;;26.00;51.40;;;;;;5127352;27;20418;-72
2021/06/15 10:59:06;;;;;;;7.38;2.00;;;26.20;50.20;;;;;;5121558;27;20923;-71
2021/06/15 11:01:36;;;;;;;10.98;1.95;;;26.30;49.90;;;;;;5040856;28;20426;-72
2021/06/15 11:04:04;;;;;;;7.85;2.10;;;26.40;49.00;;;;;;5104331;27;20422;-71
2021/06/15 11:06:59;;;;;;;8.20;2.40;;;26.40;48.70;;;;;;5122005;27;20429;-72
2021/06/15 11:09:33;;;;;;;8.85;2.20;;;26.50;48.90;;;;;;5116499;27;21120;-72
2021/06/15 11:12:19;;;;;;;8.90;1.97;;;26.60;49.10;;;;;;5125675;27;20839;-70
2021/06/15 11:15:12;;;;;;;8.02;2.25;;;26.60;48.80;;;;;;5123180;27;20480;-70
2021/06/15 11:17:51;;;;;;;8.55;2.28;;;26.70;48.30;;;;;;5120106;27;20475;-71
2021/06/15 11:20:33;;;;;;;8.70;2.10;;;26.80;48.30;;;;;;5125366;27;20432;-73
2021/06/15 11:23:23;;;;;;;7.13;2.20;;;26.90;47.50;;;;;;5122897;27;20433;-70
2021/06/15 11:25:54;;;;;;;7.78;2.15;;;27.00;47.40;;;;;;5125652;27;20506;-72
2021/06/15 11:28:43;;;;;;;9.68;2.20;;;27.10;46.20;;;;;;5127857;27;20755;-72
2021/06/15 11:31:36;;;;;;;9.15;1.98;;;27.00;46.50;;;;;;5126847;27;20429;-73
2021/06/15 11:34:14;;;;;;;7.28;2.00;;;27.10;47.60;;;;;;5127562;27;20449;-74
2021/06/15 11:36:44;;;;;;;6.78;1.90;;;27.10;47.40;;;;;;5125584;27;20437;-73
2021/06/15 11:39:32;;;;;;;11.38;1.90;;;27.20;47.50;;;;;;5126629;27;20887;-73
2021/06/15 11:42:28;;;;;;;9.23;2.25;;;27.30;46.80;;;;;;5156883;27;20432;-70
2021/06/15 11:45:02;;;;;;;11.45;2.22;;;27.40;45.80;;;;;;5123245;27;20431;-71
2021/06/15 11:47:38;;;;;;;6.85;2.00;;;27.40;45.90;;;;;;5124935;27;20558;-74
2021/06/15 11:50:08;;;;;;;8.98;2.00;;;27.30;45.60;;;;;;5124193;27;20727;-72
2021/06/15 11:52:36;;;;;;;7.18;1.98;;;27.30;46.10;;;;;;5125810;27;20430;-73
2021/06/15 11:55:05;;;;;;;7.15;1.90;;;27.40;45.40;;;;;;5121800;27;20770;-72
2021/06/15 11:57:33;;;;;;;7.82;2.13;;;27.50;45.40;;;;;;5126461;27;20426;-73
2021/06/15 12:00:00;;;;;;;10.35;2.30;;;27.50;45.40;;;;;;5122120;27;20446;-73
2021/06/15 12:02:28;;;;;;;8.93;2.00;;;27.60;44.90;;;;;;5153432;27;20418;-74
2021/06/15 12:05:10;;;;;;;9.33;1.90;;;27.70;45.90;;;;;;5125788;27;20767;-76
2021/06/15 12:07:38;;;;;;;6.93;1.95;;;27.80;45.60;;;;;;5126618;27;20425;-71
2021/06/15 12:10:11;;;;;;;9.10;2.17;;;27.90;45.50;;;;;;5123865;27;20970;-75
2021/06/15 12:13:01;;;;;;;9.80;2.17;;;28.10;46.00;;;;;;5123730;27;20425;-71
2021/06/15 12:15:33;;;;;;;7.78;1.88;;;28.20;44.70;;;;;;5122647;27;20462;-72
2021/06/15 12:18:00;;;;;;;8.17;2.10;;;28.40;44.60;;;;;;5121657;27;20414;-72
2021/06/15 12:20:29;;;;;;;8.10;1.92;;;28.50;43.30;;;;;;5125159;27;20474;-73
2021/06/15 12:22:57;;;;;;;11.23;2.20;;;28.70;42.70;;;;;;5126583;27;20917;-72
2021/06/15 12:25:30;;;;;;;8.30;2.50;;;28.80;42.70;;;;;;5126574;27;20411;-71
2021/06/15 12:28:12;;;;;;;7.75;2.30;;;29.00;42.10;;;;;;5125143;27;20424;-72
2021/06/15 12:30:40;;;;;;;10.20;2.45;;;28.90;42.50;;;;;;5123013;27;20418;-73
2021/06/15 12:33:08;;;;;;;7.53;2.20;;;29.00;42.90;;;;;;5122384;27;20930;-73
2021/06/15 12:35:36;;;;;;;7.97;2.10;;;29.00;43.10;;;;;;5124265;27;20422;-72
2021/06/15 12:38:11;;;;;;;9.82;2.35;;;29.10;42.60;;;;;;5126295;27;20509;-74
2021/06/15 12:40:39;;;;;;;10.52;2.40;;;29.10;42.50;;;;;;5122543;27;20505;-71
2021/06/15 12:43:08;;;;;;;13.57;2.40;;;29.30;42.20;;;;;;5124067;27;20566;-74
2021/06/15 12:45:38;;;;;;;8.63;2.42;;;29.30;41.50;;;;;;5125088;27;20422;-73
2021/06/15 12:48:19;;;;;;;7.50;2.10;;;29.20;41.20;;;;;;5125458;27;20441;-73
2021/06/15 12:50:46;;;;;;;8.48;2.33;;;29.20;41.70;;;;;;5125678;27;20886;-72
2021/06/15 12:53:13;;;;;;;7.38;2.35;;;29.30;41.60;;;;;;5126957;27;20770;-71
2021/06/15 12:55:43;;;;;;;8.52;2.20;;;29.40;41.50;;;;;;5124728;27;20755;-71
2021/06/15 12:58:11;;;;;;;12.45;2.55;;;29.40;41.50;;;;;;5120180;27;20422;-71
2021/06/15 13:00:44;;;;;;;9.57;2.50;;;29.30;41.70;;;;;;5120954;27;20514;-73
2021/06/15 13:03:13;;;;;;;14.50;2.35;;;29.30;42.10;;;;;;5126346;27;20430;-72
2021/06/15 13:05:40;;;;;;;10.60;2.45;;;29.20;41.80;;;;;;5120033;27;20961;-71